Startpagina
METAR-TAF:

METAR-TAF

Vliegvelden :

Bevekom, België

Vliegbasis Bevekom

breedte: 50-45N, lengte: 004-46E, hoogte: 105 m

Actueel weer

Dit bericht is 17 minuten geleden gemaakt, om 06:25 UTC
Wind 6 kt uit het westzuidwesten
Temperatuur 3°C
Vochtigheid 81%
Druk 1018 hPa
Zicht 10 km of meer

METAR: EBBE 190625Z AUTO 24006KT 9999 SCT055/// 03/00 Q1018 BLU

Tijdstip: 07:42 (06:42 UTC)

Verwachting

Dit bericht is 15 uur en het 1 minuten geleden gemaakt, om 15:41 UTC
Verwachting geldig van 17 om 19 UTC tot 18 om 07 UTC
Wind 6 kt uit het zuidwesten
Zicht 10 km of meer
Verspreide wolken op 3500 ft

TAF: EBBE 171541Z 1719/1807 23006KT 9999 SCT035

Waarnemingen en weersverwachtingen van meer dan 4000 vliegvelden (METAR en TAF).

De beschikbare stations zijn de gele en rode punten op de kaart.

Ga met uw muis naar het station om de naam te zien.

Klik dan om waarnemingen en weersverwachtingen te zien.

kaart wijzigen: klik op de groene knoppen met een zwart kruis om in te zoomen, op de groene knop met een streepje om uit te zoomen of op de groene pijlen voor aangrenzende kaarten.


METAR-TAF: